createdAt,value
2019-04-11T08:23:31.744Z,13.38
2019-04-11T08:25:58.295Z,10.95
2019-04-11T08:28:25.025Z,10.55
2019-04-11T08:30:51.567Z,10.88
2019-04-11T08:33:18.374Z,15.03
2019-04-11T08:35:45.195Z,10.95
2019-04-11T08:38:12.075Z,11.57
2019-04-11T08:40:38.834Z,13.55
2019-04-11T08:43:06.582Z,12.68
2019-04-11T08:45:33.931Z,17.40
2019-04-11T08:48:02.386Z,14.75
2019-04-11T08:50:30.230Z,16.50
2019-04-11T08:52:57.154Z,16.23
2019-04-11T08:55:23.674Z,13.38
2019-04-11T08:57:53.015Z,12.60
2019-04-11T09:00:19.574Z,12.20
2019-04-11T09:02:46.134Z,15.78
2019-04-11T09:05:15.711Z,15.85
2019-04-11T09:07:41.500Z,16.93
2019-04-11T09:10:09.457Z,17.57
2019-04-11T09:12:36.574Z,17.05
2019-04-11T09:15:04.418Z,15.93
2019-04-11T09:17:31.321Z,15.50
2019-04-11T09:19:59.003Z,20.60
2019-04-11T09:22:25.762Z,16.23
2019-04-11T09:24:52.606Z,17.80
2019-04-11T09:27:20.466Z,16.07
2019-04-11T09:29:48.211Z,15.35
2019-04-11T09:32:15.975Z,14.07
2019-04-11T09:34:43.924Z,16.42
2019-04-11T09:37:13.998Z,13.30
2019-04-11T09:39:39.538Z,13.98
2019-04-11T09:42:07.179Z,12.78
2019-04-11T09:44:34.991Z,15.25
2019-04-11T09:47:01.565Z,16.35
2019-04-11T09:49:29.073Z,16.63
2019-04-11T09:51:56.110Z,15.98
2019-04-11T09:54:23.872Z,16.85
2019-04-11T09:56:51.766Z,16.10
2019-04-11T09:59:18.576Z,13.32
2019-04-11T10:01:45.243Z,15.03
2019-04-11T10:04:11.982Z,17.82
2019-04-11T10:06:38.891Z,14.13
2019-04-11T10:09:05.831Z,16.17
2019-04-11T10:11:32.671Z,15.23
2019-04-11T10:13:59.574Z,16.30
2019-04-11T10:16:26.430Z,15.43
2019-04-11T10:18:53.604Z,15.45
2019-04-11T10:21:21.276Z,13.75
2019-04-11T10:23:49.282Z,17.48
2019-04-11T10:26:16.215Z,13.50
2019-04-11T10:28:43.843Z,18.77
2019-04-11T10:31:11.071Z,15.45
2019-04-11T10:33:37.741Z,16.30
2019-04-11T10:36:05.017Z,29.12
2019-04-11T10:38:32.761Z,16.15
2019-04-11T10:41:00.769Z,16.97
2019-04-11T10:43:28.640Z,17.70
2019-04-11T10:45:55.321Z,17.02
2019-04-11T10:48:32.584Z,17.48
2019-04-11T10:50:50.709Z,15.68
2019-04-11T10:53:18.012Z,16.42
2019-04-11T10:55:46.080Z,15.58
2019-04-11T10:58:13.000Z,16.85
2019-04-11T11:00:39.756Z,15.72
2019-04-11T11:03:06.349Z,13.78
2019-04-11T11:05:33.011Z,15.35
2019-04-11T11:07:59.572Z,17.30
2019-04-11T11:10:26.337Z,14.75
2019-04-11T11:12:53.772Z,17.30
2019-04-11T11:15:21.548Z,15.60
2019-04-11T11:18:20.626Z,16.27
2019-04-11T11:20:26.046Z,14.53
2019-04-11T11:22:46.111Z,17.25
2019-04-11T11:25:15.624Z,14.98
2019-04-11T11:27:41.668Z,14.63
2019-04-11T11:30:08.398Z,15.60
2019-04-11T11:32:35.786Z,15.28
2019-04-11T11:35:03.407Z,19.55
2019-04-11T11:37:31.345Z,15.48
2019-04-11T11:40:02.598Z,15.78
2019-04-11T11:42:26.611Z,17.92
2019-04-11T11:44:53.284Z,19.05
2019-04-11T11:47:19.929Z,18.42
2019-04-11T11:49:55.583Z,15.65
2019-04-11T11:52:15.171Z,19.55
2019-04-11T11:54:42.070Z,18.90
2019-04-11T11:57:08.831Z,18.17
2019-04-11T11:59:36.483Z,15.90
2019-04-11T12:02:04.403Z,17.17
2019-04-11T12:04:35.459Z,17.12
2019-04-11T12:07:03.633Z,15.43
2019-04-11T12:09:28.743Z,14.45
2019-04-11T12:11:56.923Z,15.98
2019-04-11T12:14:24.277Z,17.17
2019-04-11T12:16:54.837Z,16.73
2019-04-11T12:19:21.349Z,19.90
2019-04-11T12:21:48.899Z,17.98
2019-04-11T12:24:15.906Z,20.23
2019-04-11T12:26:44.064Z,16.15
2019-04-11T12:29:12.136Z,17.77
2019-04-11T12:31:39.668Z,18.05
2019-04-11T12:34:06.426Z,20.08
2019-04-11T12:36:34.652Z,17.55
2019-04-11T12:39:01.425Z,17.90
2019-04-11T12:41:28.140Z,21.62
2019-04-11T12:43:54.800Z,19.10
2019-04-11T12:46:29.569Z,18.62
2019-04-11T12:48:49.773Z,19.45
2019-04-11T12:51:16.373Z,17.60
2019-04-11T12:53:42.966Z,19.23
2019-04-11T12:56:09.534Z,19.48
2019-04-11T12:58:36.303Z,19.80
2019-04-11T13:01:02.850Z,15.60
2019-04-11T13:03:29.624Z,15.32
2019-04-11T13:05:56.372Z,15.05
2019-04-11T13:08:23.050Z,14.90
2019-04-11T13:10:49.807Z,13.68
2019-04-11T13:13:16.272Z,17.37
2019-04-11T13:15:43.072Z,15.28
2019-04-11T13:18:09.780Z,14.28
2019-04-11T13:20:36.341Z,12.45
2019-04-11T13:23:02.999Z,14.60
2019-04-11T13:25:29.875Z,10.55
2019-04-11T13:27:56.529Z,13.72
2019-04-11T13:30:23.231Z,12.90
2019-04-11T13:32:49.855Z,13.40
2019-04-11T13:35:16.514Z,16.97
2019-04-11T13:37:43.189Z,12.80
2019-04-11T13:40:09.789Z,13.95
2019-04-11T13:42:36.378Z,11.48
2019-04-11T13:45:02.955Z,14.65
2019-04-11T13:47:29.514Z,12.03
2019-04-11T13:49:56.174Z,12.10
2019-04-11T13:52:22.935Z,13.30
2019-04-11T13:54:52.451Z,15.93
2019-04-11T13:57:19.111Z,15.28
2019-04-11T13:59:46.994Z,12.88
2019-04-11T14:02:13.658Z,15.58
2019-04-11T14:04:40.630Z,16.12
2019-04-11T14:07:07.391Z,17.02
2019-04-11T14:09:34.051Z,15.28
2019-04-11T14:12:04.688Z,15.68
2019-04-11T14:14:29.003Z,14.73
2019-04-11T14:16:58.412Z,14.47
2019-04-11T14:19:25.100Z,16.48
2019-04-11T14:21:51.952Z,14.63
2019-04-11T14:24:18.502Z,16.25
2019-04-11T14:26:45.176Z,14.00
2019-04-11T14:29:12.033Z,17.27
2019-04-11T14:31:38.711Z,16.82
2019-04-11T14:34:05.459Z,14.80
2019-04-11T14:36:33.593Z,18.27
2019-04-11T14:39:00.620Z,15.15
2019-04-11T14:41:27.276Z,14.63
2019-04-11T14:43:54.052Z,14.30
2019-04-11T14:46:20.750Z,14.43
2019-04-11T14:48:47.473Z,14.58
2019-04-11T14:51:16.719Z,18.75
2019-04-11T14:53:46.299Z,29.60
2019-04-11T14:56:11.241Z,13.22
2019-04-11T14:58:37.993Z,12.23
2019-04-11T15:01:04.557Z,11.80
2019-04-11T15:03:31.111Z,11.33
2019-04-11T15:05:57.779Z,12.60
2019-04-11T15:08:25.762Z,13.25
2019-04-11T15:10:52.430Z,11.60
2019-04-11T15:13:19.190Z,12.95
2019-04-11T15:15:46.059Z,10.88
2019-04-11T15:18:12.596Z,13.70
2019-04-11T15:20:41.088Z,16.55
2019-04-11T15:23:07.655Z,10.65
2019-04-11T15:25:35.722Z,11.73
2019-04-11T15:28:02.939Z,11.22
2019-04-11T15:30:29.592Z,11.35
2019-04-11T15:32:56.152Z,10.72
2019-04-11T15:35:22.810Z,12.55
2019-04-11T15:37:49.488Z,14.35
2019-04-11T15:40:16.126Z,15.70
2019-04-11T15:42:42.888Z,14.25
2019-04-11T15:45:13.314Z,13.40
2019-04-11T15:47:37.954Z,13.28
2019-04-11T15:50:04.623Z,13.32
2019-04-11T15:52:31.268Z,13.50
2019-04-11T15:54:57.822Z,17.90
2019-04-11T15:57:26.737Z,15.88
2019-04-11T15:59:54.266Z,19.90
2019-04-11T16:02:21.177Z,16.07
2019-04-11T16:04:47.849Z,15.18
2019-04-11T16:07:14.605Z,14.40
2019-04-11T16:09:42.231Z,15.10
2019-04-11T16:12:09.361Z,13.70
2019-04-11T16:14:36.016Z,14.07
2019-04-11T16:17:02.530Z,14.33
2019-04-11T16:19:29.240Z,13.45
2019-04-11T16:21:55.893Z,16.85
2019-04-11T16:24:22.702Z,15.03
2019-04-11T16:26:49.422Z,15.00
2019-04-11T16:29:15.974Z,16.60
2019-04-11T16:31:42.707Z,14.15
2019-04-11T16:34:09.297Z,13.00
2019-04-11T16:36:35.959Z,13.43
2019-04-11T16:39:02.634Z,12.50
2019-04-11T16:41:29.381Z,11.05
2019-04-11T16:43:56.249Z,10.72
2019-04-11T16:46:24.807Z,10.28
2019-04-11T16:48:51.304Z,10.95
2019-04-11T16:51:17.864Z,12.90
2019-04-11T16:53:44.524Z,15.13
2019-04-11T16:56:12.739Z,12.15
2019-04-11T16:58:39.587Z,12.47
2019-04-11T17:01:06.555Z,8.53
2019-04-11T17:03:33.418Z,9.98
2019-04-11T17:06:00.084Z,10.18
2019-04-11T17:08:26.633Z,10.30
2019-04-11T17:10:56.685Z,10.05
2019-04-11T17:13:23.777Z,11.18
2019-04-11T17:15:50.292Z,12.15
2019-04-11T17:18:18.874Z,12.78
2019-04-11T17:20:45.153Z,12.93
2019-04-11T17:23:11.810Z,11.73
2019-04-11T17:25:38.370Z,14.58
2019-04-11T17:28:04.941Z,12.15
2019-04-11T17:30:31.581Z,13.65
2019-04-11T17:32:58.146Z,12.75
2019-04-11T17:35:24.821Z,13.62
2019-04-11T17:37:51.582Z,13.25
2019-04-11T17:40:18.429Z,14.00
2019-04-11T17:42:45.091Z,16.50
2019-04-11T17:45:11.770Z,17.07
2019-04-11T17:47:38.528Z,17.35
2019-04-11T17:50:05.189Z,12.95
2019-04-11T17:52:31.939Z,15.48
2019-04-11T17:55:00.221Z,16.30
2019-04-11T17:57:27.670Z,16.40
2019-04-11T17:59:56.787Z,13.98
2019-04-11T18:02:22.891Z,16.50
2019-04-11T18:04:50.051Z,14.07
2019-04-11T18:07:17.568Z,15.03
2019-04-11T18:09:44.703Z,15.58
2019-04-11T18:12:11.362Z,16.10
2019-04-11T18:14:37.925Z,14.43
2019-04-11T18:17:04.822Z,15.32
2019-04-11T18:19:33.855Z,16.42
2019-04-11T18:22:07.750Z,17.40
2019-04-11T18:24:28.405Z,14.40
2019-04-11T18:26:55.113Z,17.35
2019-04-11T18:29:23.033Z,14.30
2019-04-11T18:31:50.067Z,15.48
2019-04-11T18:34:16.736Z,15.13
2019-04-11T18:36:43.338Z,15.20
2019-04-11T18:39:09.936Z,16.25
2019-04-11T18:41:36.716Z,16.70
2019-04-11T18:44:03.456Z,13.03
2019-04-11T18:46:30.122Z,15.13
2019-04-11T18:48:56.696Z,13.53
2019-04-11T18:51:23.781Z,15.13
2019-04-11T18:53:50.611Z,21.60
2019-04-11T18:56:17.070Z,18.00
2019-04-11T18:58:43.731Z,15.25
2019-04-11T19:01:10.290Z,16.20
2019-04-11T19:03:40.954Z,13.45
2019-04-11T19:06:05.139Z,14.93
2019-04-11T19:08:31.846Z,11.85
2019-04-11T19:10:59.090Z,13.75
2019-04-11T19:13:25.741Z,13.88
2019-04-11T19:15:52.603Z,15.25
2019-04-11T19:18:19.374Z,14.45
2019-04-11T19:20:49.868Z,16.00
2019-04-11T19:23:14.535Z,14.03
2019-04-11T19:25:44.497Z,13.30
2019-04-11T19:28:09.594Z,18.92
2019-04-11T19:30:36.252Z,20.90
2019-04-11T19:33:02.914Z,19.30
2019-04-11T19:35:29.989Z,22.40
2019-04-11T19:37:56.630Z,16.48
2019-04-11T19:40:23.190Z,15.68
2019-04-11T19:42:49.901Z,17.23
2019-04-11T19:45:16.885Z,18.17
2019-04-11T19:47:45.008Z,17.55
2019-04-11T19:50:11.688Z,14.87
2019-04-11T19:52:45.207Z,16.90
2019-04-11T19:55:06.747Z,16.80
2019-04-11T19:57:33.408Z,17.17
2019-04-11T20:00:00.067Z,14.93
2019-04-11T20:02:26.613Z,15.43
2019-04-11T20:04:53.373Z,15.35
2019-04-11T20:07:22.733Z,15.75
2019-04-11T20:09:49.335Z,15.55
2019-04-11T20:12:15.922Z,15.50
2019-04-11T20:14:42.465Z,20.05
2019-04-11T20:17:09.260Z,15.90
2019-04-11T20:19:36.012Z,16.00
2019-04-11T20:22:02.674Z,15.28
2019-04-11T20:24:29.333Z,14.85
2019-04-11T20:26:55.993Z,18.23
2019-04-11T20:29:23.973Z,16.70
2019-04-11T20:31:50.534Z,18.87
2019-04-11T20:34:26.798Z,18.42
2019-04-11T20:36:45.694Z,21.25
2019-04-11T20:39:15.043Z,21.10
2019-04-11T20:41:40.684Z,23.50
2019-04-11T20:44:07.200Z,21.40
2019-04-11T20:46:33.773Z,21.97
2019-04-11T20:49:00.424Z,20.17
2019-04-11T20:51:27.079Z,23.27
2019-04-11T20:53:53.754Z,19.37
2019-04-11T20:56:24.260Z,18.15
2019-04-11T20:58:48.692Z,18.70
2019-04-11T21:01:15.373Z,21.65
2019-04-11T21:03:42.120Z,18.85
2019-04-11T21:06:08.784Z,18.10
2019-04-11T21:08:36.701Z,20.88
2019-04-11T21:11:04.547Z,19.55
2019-04-11T21:13:31.862Z,18.65
2019-04-11T21:15:58.523Z,21.93
2019-04-11T21:18:25.823Z,24.27
2019-04-11T21:20:55.240Z,21.65
2019-04-11T21:26:01.494Z,23.55
2019-04-11T21:28:30.280Z,23.05
2019-04-11T21:30:59.936Z,23.73
2019-04-11T21:33:25.264Z,22.55
2019-04-11T21:35:51.921Z,22.15
2019-04-11T21:38:18.584Z,19.77
2019-04-11T21:40:45.349Z,27.50
2019-04-11T21:43:12.010Z,21.30
2019-04-11T21:45:38.771Z,20.35
2019-04-11T21:48:06.574Z,20.85
2019-04-11T21:50:33.629Z,19.42
2019-04-11T21:53:00.288Z,20.30
2019-04-11T21:55:27.668Z,15.35
2019-04-11T21:57:54.330Z,19.45
2019-04-11T22:00:22.426Z,18.77
2019-04-11T22:02:51.916Z,18.25
2019-04-11T22:05:18.093Z,17.45
2019-04-11T22:07:44.753Z,19.07
2019-04-11T22:10:11.412Z,16.95
2019-04-11T22:12:40.084Z,18.00
2019-04-11T22:15:06.359Z,18.87
2019-04-11T22:17:33.135Z,17.67
2019-04-11T22:19:59.895Z,17.07
2019-04-11T22:22:27.375Z,15.18
2019-04-11T22:24:54.021Z,19.82
2019-04-11T22:27:22.207Z,17.20
2019-04-11T22:29:48.982Z,19.30
2019-04-11T22:32:15.445Z,23.38
2019-04-11T22:34:42.213Z,18.37
2019-04-11T22:37:09.276Z,21.45
2019-04-11T22:39:36.033Z,15.90
2019-04-11T22:42:02.812Z,19.37
2019-04-11T22:44:29.562Z,18.25
2019-04-11T22:46:56.315Z,20.85
2019-04-11T22:49:22.978Z,23.57
2019-04-11T22:51:49.651Z,17.73
2019-04-11T22:54:16.303Z,17.48
2019-04-11T22:56:43.080Z,16.37
2019-04-11T22:59:13.691Z,18.48
2019-04-11T23:01:38.440Z,16.05
2019-04-11T23:04:05.103Z,16.50
2019-04-11T23:06:31.963Z,15.48
2019-04-11T23:08:58.837Z,16.90
2019-04-11T23:11:25.493Z,19.57
2019-04-11T23:13:52.142Z,19.45
2019-04-11T23:16:18.703Z,16.25
2019-04-11T23:18:45.351Z,19.67
2019-04-11T23:21:14.192Z,17.50
2019-04-11T23:23:40.422Z,17.48
2019-04-11T23:26:07.089Z,19.42
2019-04-11T23:28:33.749Z,16.87
2019-04-11T23:31:00.499Z,17.92
2019-04-11T23:33:27.170Z,19.75
2019-04-11T23:35:53.823Z,15.65
2019-04-11T23:38:23.686Z,15.80
2019-04-11T23:40:48.938Z,15.23
2019-04-11T23:43:19.872Z,18.48
2019-04-11T23:45:45.686Z,19.65
2019-04-11T23:48:12.332Z,20.57
2019-04-11T23:50:38.993Z,18.32
2019-04-11T23:53:05.872Z,17.32
2019-04-11T23:55:32.637Z,15.13
2019-04-11T23:58:01.194Z,17.48
